Time;durP1;ratioP1;P1;durP2;ratioP2;P2;SDS_P1;SDS_P2;PMS_P1;PMS_P2;Temp;Humidity;BMP_temperature;BMP_pressure;BME280_temperature;BME280_humidity;BME280_pressure;Samples;Min_cycle;Max_cycle;Signal;HPM_P1;HPM_P2
2021/11/12 00:12:30;;;;;;;22.63;16.70;;;;;;;;;;5056300;28;20031;-63
2021/11/12 00:14:56;;;;;;;32.10;21.98;;;3.00;99.90;;;;;;5055630;28;20091;-63
2021/11/12 00:17:22;;;;;;;;;;;;;;;;;;5056645;28;20072;-63
2021/11/12 00:19:50;;;;;;;25.35;19.35;;;2.50;99.90;;;;;;5059342;28;20369;-63
2021/11/12 00:22:17;;;;;;;21.30;17.27;;;2.20;99.90;;;;;;5059996;28;20048;-63
2021/11/12 00:24:43;;;;;;;22.80;16.58;;;2.90;99.90;;;;;;5060049;28;20021;-63
2021/11/12 00:27:09;;;;;;;;;;;;;;;;;;5060672;28;20075;-63
2021/11/12 00:29:44;;;;;;;30.05;20.08;;;2.60;99.90;;;;;;5060107;28;19905;-63
2021/11/12 00:32:20;;;;;;;23.17;18.05;;;2.70;99.90;;;;;;5060104;28;20462;-63
2021/11/12 00:39:54;;;;;;;41.45;22.75;;;;;;;;;;5059747;28;20029;-63
2021/11/12 00:42:25;;;;;;;30.88;19.83;;;;;;;;;;5059675;28;20013;-63
2021/11/12 00:45:20;;;;;;;30.13;21.17;;;;;;;;;;5059439;28;20021;-63
2021/11/12 00:47:51;;;;;;;38.83;23.70;;;;;;;;;;5059404;28;20037;-63
2021/11/12 00:55:19;;;;;;;24.08;17.92;;;;;;;;;;5059319;28;20032;-63
2021/11/12 00:57:45;;;;;;;29.38;19.17;;;;;;;;;;5059546;28;20028;-63
2021/11/12 01:00:12;;;;;;;21.98;16.60;;;;;;;;;;5059178;28;20400;-63
2021/11/12 01:02:39;;;;;;;26.00;19.33;;;;;;;;;;5059659;28;20405;-63
2021/11/12 01:05:07;;;;;;;28.08;20.60;;;2.70;99.90;;;;;;5059078;28;20032;-63
2021/11/12 01:07:33;;;;;;;24.25;18.52;;;;;;;;;;5059250;28;20061;-63
2021/11/12 01:09:59;;;;;;;28.70;21.23;;;2.70;99.90;;;;;;5058949;28;20060;-63
2021/11/12 01:12:25;;;;;;;;;;;;;;;;;;5059686;28;20079;-63
2021/11/12 01:14:51;;;;;;;25.67;20.27;;;;;;;;;;5058511;28;20000;-63
2021/11/12 01:17:18;;;;;;;26.00;20.73;;;;;;;;;;5058974;28;20377;-63
2021/11/12 01:19:44;;;;;;;19.65;16.40;;;;;;;;;;5058834;28;20028;-63
2021/11/12 01:22:11;;;;;;;25.45;18.80;;;;;;;;;;5059047;28;20465;-63
2021/11/12 01:24:38;;;;;;;23.92;17.58;;;2.20;99.90;;;;;;5058813;28;20476;-63
2021/11/12 01:27:05;;;;;;;31.48;20.75;;;3.30;99.90;;;;;;5058879;28;20029;-63
2021/11/12 01:29:32;;;;;;;28.17;20.52;;;;;;;;;;5058278;28;20095;-63
2021/11/12 01:32:18;;;;;;;31.30;22.63;;;2.70;99.90;;;;;;5058746;28;20036;-63
2021/11/12 01:34:45;;;;;;;35.33;23.90;;;;;;;;;;5058751;28;20561;-63
2021/11/12 01:37:11;;;;;;;32.70;22.63;;;;;;;;;;5058309;28;20424;-63
2021/11/12 01:39:38;;;;;;;25.27;19.05;;;;;;;;;;5058993;28;20025;-63
2021/11/12 01:42:04;;;;;;;28.65;20.92;;;;;;;;;;5058615;28;20029;-63
2021/11/12 01:44:35;;;;;;;28.20;20.33;;;;;;;;;;5058465;28;20028;-63
2021/11/12 01:49:49;;;;;;;24.35;17.50;;;;;;;;;;5058744;28;20102;-63
2021/11/12 01:52:23;;;;;;;22.92;18.50;;;;;;;;;;5057067;28;20037;-63
2021/11/12 01:59:49;;;;;;;28.27;21.95;;;;;;;;;;5058265;28;20048;-63
2021/11/12 02:02:16;;;;;;;29.52;20.95;;;;;;;;;;5058245;28;20064;-63
2021/11/12 02:04:42;;;;;;;27.55;19.30;;;;;;;;;;5057942;28;20020;-63
2021/11/12 02:07:11;;;;;;;27.70;19.20;;;;;;;;;;5058208;28;20032;-63
2021/11/12 02:09:37;;;;;;;36.40;24.48;;;;;;;;;;5058159;28;20021;-63
2021/11/12 02:12:09;;;;;;;28.92;19.58;;;;;;;;;;5058098;28;20029;-63
2021/11/12 02:14:38;;;;;;;25.38;19.17;;;;;;;;;;5057588;28;20025;-63
2021/11/12 02:17:09;;;;;;;24.60;20.77;;;;;;;;;;5056479;28;20033;-63
2021/11/12 02:19:36;;;;;;;25.85;20.67;;;;;;;;;;5057802;28;20032;-63
2021/11/12 02:22:12;;;;;;;28.10;21.75;;;;;;;;;;5057735;28;20032;-63
2021/11/12 02:24:41;;;;;;;29.85;22.38;;;;;;;;;;5057784;28;20055;-63
2021/11/12 02:27:13;;;;;;;29.95;23.08;;;;;;;;;;5057865;28;20055;-63
2021/11/12 02:29:45;;;;;;;26.55;19.15;;;;;;;;;;5056287;28;20021;-63
2021/11/12 02:32:18;;;;;;;26.13;18.35;;;;;;;;;;5057665;28;20111;-63
2021/11/12 02:34:45;;;;;;;31.05;23.10;;;;;;;;;;5057593;28;20118;-63
2021/11/12 02:37:11;;;;;;;30.85;21.65;;;;;;;;;;5057100;28;20049;-63
2021/11/12 02:39:37;;;;;;;29.63;21.67;;;;;;;;;;5057688;28;20025;-63
2021/11/12 02:42:03;;;;;;;24.20;19.38;;;3.40;99.90;;;;;;5056816;28;20029;-63
2021/11/12 02:44:34;;;;;;;34.90;21.42;;;2.80;99.90;;;;;;5057127;28;20048;-63
2021/11/12 02:47:00;;;;;;;30.88;21.42;;;;;;;;;;5057515;28;20020;-63
2021/11/12 02:49:26;;;;;;;34.67;22.52;;;;;;;;;;5056079;28;20029;-63
2021/11/12 02:51:53;;;;;;;32.08;22.95;;;;;;;;;;5057042;28;20033;-63
2021/11/12 02:54:20;;;;;;;27.80;20.30;;;;;;;;;;5057177;28;20434;-63
2021/11/12 02:56:46;;;;;;;30.52;22.38;;;;;;;;;;5056962;28;20032;-63
2021/11/12 02:59:13;;;;;;;32.22;19.20;;;;;;;;;;5057157;28;20041;-63
2021/11/12 03:01:45;;;;;;;27.42;20.95;;;;;;;;;;5056857;28;20072;-63
2021/11/12 03:04:11;;;;;;;34.80;23.75;;;;;;;;;;5057131;28;20100;-63
2021/11/12 03:06:38;;;;;;;31.50;22.58;;;;;;;;;;5056896;28;20071;-63
2021/11/12 03:09:07;;;;;;;26.73;20.65;;;;;;;;;;5056915;28;20028;-63
2021/11/12 03:11:37;;;;;;;25.98;20.10;;;;;;;;;;5056847;28;20089;-63
2021/11/12 03:14:05;;;;;;;37.05;25.85;;;2.90;99.90;;;;;;5056873;28;20032;-63
2021/11/12 03:16:33;;;;;;;27.80;20.45;;;;;;;;;;5056212;28;20025;-63
2021/11/12 03:19:00;;;;;;;32.03;23.85;;;;;;;;;;5057017;28;20036;-63
2021/11/12 03:21:26;;;;;;;23.77;18.77;;;;;;;;;;5057062;28;20032;-63
2021/11/12 03:24:00;;;;;;;27.15;21.25;;;;;;;;;;5056663;28;20623;-63
2021/11/12 04:02:02;;;;;;;23.77;17.30;;;;;;;;;;5060486;28;20075;-63
2021/11/12 04:49:20;;;;;;;25.15;20.45;;;;;;;;;;5059870;28;20072;-63
2021/11/12 05:10:14;;;;;;;29.40;20.30;;;;;;;;;;5059132;28;20071;-63
2021/11/12 05:34:44;;;;;;;33.25;24.75;;;;;;;;;;5058655;28;20090;-63
2021/11/12 05:51:31;;;;;;;30.73;21.77;;;;;;;;;;5058651;28;20072;-63
2021/11/12 05:56:30;;;;;;;27.83;21.67;;;;;;;;;;5058126;28;20035;-63
2021/11/12 05:58:56;;;;;;;31.45;21.17;;;;;;;;;;5058404;28;20108;-63
2021/11/12 06:01:23;;;;;;;;;;;;;;;;;;5058367;28;20053;-63
2021/11/12 06:03:49;;;;;;;29.60;20.48;;;;;;;;;;5058513;28;19931;-63
2021/11/12 06:06:15;;;;;;;29.58;23.67;;;;;;;;;;5058077;28;20184;-63
2021/11/12 06:08:42;;;;;;;25.48;20.73;;;;;;;;;;5058032;28;20025;-63
2021/11/12 06:11:08;;;;;;;34.45;21.70;;;;;;;;;;5058126;28;20025;-63
2021/11/12 06:13:34;;;;;;;31.92;23.58;;;;;;;;;;5058130;28;20021;-63
2021/11/12 06:16:00;;;;;;;28.88;20.52;;;;;;;;;;5056414;28;20029;-63
2021/11/12 06:18:27;;;;;;;30.50;22.92;;;;;;;;;;5057979;28;20021;-63
2021/11/12 06:20:53;;;;;;;34.75;26.83;;;;;;;;;;5057685;28;20476;-63
2021/11/12 06:23:19;;;;;;;34.92;23.77;;;;;;;;;;5057680;28;20499;-63
2021/11/12 06:25:46;;;;;;;31.40;24.55;;;;;;;;;;5057745;28;20063;-63
2021/11/12 06:28:12;;;;;;;29.48;22.95;;;;;;;;;;5057790;28;20078;-62
2021/11/12 06:30:38;;;;;;;30.10;21.45;;;;;;;;;;5057650;28;20037;-63
2021/11/12 06:33:04;;;;;;;31.85;23.75;;;;;;;;;;5057717;28;20101;-63
2021/11/12 06:35:31;;;;;;;32.30;22.55;;;;;;;;;;5057294;28;20060;-63
2021/11/12 06:37:57;;;;;;;24.38;19.52;;;;;;;;;;5057509;28;20052;-63
2021/11/12 06:40:23;;;;;;;26.27;21.17;;;;;;;;;;5057398;28;20033;-63
2021/11/12 06:50:37;;;;;;;33.83;22.98;;;;;;;;;;5057502;28;20044;-63
2021/11/12 06:53:04;;;;;;;33.65;24.77;;;3.90;99.90;;;;;;5057022;28;20032;-63
2021/11/12 06:55:30;;;;;;;32.45;22.50;;;;;;;;;;5057372;28;20013;-63
2021/11/12 06:57:55;;;;;;;27.30;21.45;;;3.00;99.90;;;;;;5057005;28;20085;-63
2021/11/12 07:00:22;;;;;;;;;;;;;;;;;;5057565;28;20453;-63
2021/11/12 07:02:48;;;;;;;27.00;20.48;;;;;;;;;;5057037;28;19908;-63
2021/11/12 07:05:15;;;;;;;29.10;21.38;;;3.50;99.90;;;;;;5056917;28;20029;-63
2021/11/12 07:07:41;;;;;;;30.58;20.35;;;4.00;99.90;;;;;;5056834;28;20048;-63
2021/11/12 07:10:09;;;;;;;29.55;21.48;;;4.00;99.90;;;;;;5057075;28;20097;-63
2021/11/12 07:12:35;;;;;;;31.90;21.83;;;;;;;;;;5057211;28;20064;-63
2021/11/12 07:15:02;;;;;;;38.05;22.63;;;3.80;99.90;;;;;;5056605;28;20464;-63
2021/11/12 07:17:27;;;;;;;34.97;21.42;;;3.90;99.90;;;;;;5056820;28;20078;-63
2021/11/12 07:19:53;;;;;;;;;;;3.80;99.90;;;;;;5057420;28;20024;-63
2021/11/12 07:22:19;;;;;;;26.02;18.50;;;4.10;99.90;;;;;;5056566;28;19905;-63
2021/11/12 07:24:44;;;;;;;;;;;4.30;99.90;;;;;;5055871;28;20104;-63
2021/11/12 07:27:12;;;;;;;26.85;19.63;;;4.50;99.90;;;;;;5056392;28;19912;-63
2021/11/12 07:29:39;;;;;;;33.00;18.83;;;4.80;99.90;;;;;;5055672;28;20032;-63
2021/11/12 07:32:07;;;;;;;29.27;22.10;;;4.50;99.90;;;;;;5056693;28;20017;-63
2021/11/12 07:34:34;;;;;;;23.92;16.63;;;4.10;99.90;;;;;;5056782;28;20033;-63
2021/11/12 07:37:06;;;;;;;26.67;18.83;;;4.80;99.90;;;;;;5054728;28;20106;-64
2021/11/12 07:39:46;;;;;;;28.80;19.02;;;4.30;99.90;;;;;;5056531;28;20049;-63
2021/11/12 07:42:39;;;;;;;31.23;19.40;;;4.50;99.90;;;;;;5056637;28;20021;-63
2021/11/12 07:45:09;;;;;;;26.65;18.50;;;5.30;99.90;;;;;;5056068;28;20443;-63
2021/11/12 07:47:36;;;;;;;24.35;18.02;;;5.50;99.90;;;;;;5056830;28;20028;-63
2021/11/12 07:50:07;;;;;;;22.42;15.55;;;5.10;99.90;;;;;;5056547;28;20068;-63
2021/11/12 07:52:36;;;;;;;33.25;16.40;;;5.40;99.90;;;;;;5056540;28;20023;-63
2021/11/12 07:55:05;;;;;;;29.30;16.80;;;5.10;99.90;;;;;;5056264;28;20029;-63
2021/11/12 07:57:30;;;;;;;24.92;16.27;;;5.50;99.90;;;;;;5055156;28;20032;-63
2021/11/12 07:59:57;;;;;;;;;;;5.50;99.90;;;;;;5056630;28;20473;-63
2021/11/12 08:02:24;;;;;;;37.50;20.63;;;5.60;99.90;;;;;;5055132;28;19986;-63
2021/11/12 08:04:56;;;;;;;32.55;18.02;;;5.20;99.90;;;;;;5056132;28;20032;-63
2021/11/12 08:07:23;;;;;;;26.13;16.70;;;5.60;99.90;;;;;;5056375;28;20020;-63
2021/11/12 08:09:54;;;;;;;30.73;18.23;;;6.30;99.90;;;;;;5056145;28;20101;-63
2021/11/12 08:12:34;;;;;;;36.03;19.63;;;6.20;99.90;;;;;;5056234;28;20044;-63
2021/11/12 08:18:04;;;;;;;26.67;17.52;;;6.30;99.90;;;;;;5056056;28;20079;-64
2021/11/12 08:23:25;;;;;;;28.17;20.10;;;6.60;99.90;;;;;;5035153;28;20045;-63
2021/11/12 08:26:06;;;;;;;24.88;15.23;;;6.30;99.90;;;;;;5055964;28;20400;-63
2021/11/12 08:31:27;;;;;;;29.15;13.57;;;6.60;99.90;;;;;;5055849;28;20085;-63
2021/11/12 08:34:01;;;;;;;19.95;14.13;;;6.60;99.90;;;;;;5055872;28;20056;-63
2021/11/12 08:36:37;;;;;;;18.10;13.00;;;6.70;99.90;;;;;;5055899;28;20071;-63
2021/11/12 08:41:39;;;;;;;22.52;14.38;;;6.70;99.90;;;;;;5060052;28;20086;-63
2021/11/12 08:44:14;;;;;;;26.17;15.35;;;6.90;99.90;;;;;;5059650;28;20484;-63
2021/11/12 08:46:48;;;;;;;17.70;13.90;;;6.90;99.90;;;;;;5059620;28;20074;-63
2021/11/12 08:49:18;;;;;;;29.38;17.80;;;7.20;99.90;;;;;;5059649;28;20029;-64
2021/11/12 08:51:44;;;;;;;21.80;15.55;;;7.20;99.90;;;;;;5059396;28;20066;-63
2021/11/12 08:54:10;;;;;;;;;;;7.30;99.90;;;;;;5059929;28;20112;-63
2021/11/12 08:56:37;;;;;;;19.95;14.98;;;7.90;99.90;;;;;;5059394;28;20445;-63
2021/11/12 08:59:03;;;;;;;18.25;13.75;;;7.80;99.90;;;;;;5059476;28;20032;-63
2021/11/12 09:01:29;;;;;;;19.42;15.27;;;8.50;99.90;;;;;;5059096;28;20010;-64
2021/11/12 09:03:55;;;;;;;;;;;8.60;99.90;;;;;;5059737;28;20453;-63
2021/11/12 09:06:23;;;;;;;14.02;12.40;;;8.90;99.90;;;;;;5059098;28;19942;-64
2021/11/12 09:08:50;;;;;;;17.63;14.98;;;9.10;99.90;;;;;;5059379;28;20109;-64
2021/11/12 09:11:17;;;;;;;21.42;14.27;;;9.40;99.90;;;;;;5059084;28;20021;-64
2021/11/12 09:16:11;;;;;;;16.30;12.60;;;9.60;99.90;;;;;;5058991;28;20120;-63
2021/11/12 09:18:40;;;;;;;14.63;12.95;;;9.90;99.90;;;;;;5059218;28;20048;-64
2021/11/12 09:21:06;;;;;;;15.07;12.57;;;9.50;99.90;;;;;;5059179;28;20028;-64
2021/11/12 09:23:33;;;;;;;17.15;13.82;;;9.70;99.90;;;;;;5058991;28;20021;-64
2021/11/12 09:25:59;;;;;;;16.17;14.48;;;9.70;99.90;;;;;;5058866;28;20081;-63
2021/11/12 09:28:25;;;;;;;15.27;13.70;;;10.00;99.90;;;;;;5058903;28;20024;-64
2021/11/12 09:30:51;;;;;;;13.50;11.90;;;10.00;99.90;;;;;;5057193;28;20028;-64
2021/11/12 09:33:17;;;;;;;16.95;14.98;;;9.90;99.90;;;;;;5058803;28;20051;-64
2021/11/12 09:35:42;;;;;;;13.52;11.80;;;10.00;99.90;;;;;;5058503;28;20053;-64
2021/11/12 09:38:09;;;;;;;22.95;15.57;;;10.40;99.90;;;;;;5058677;28;20085;-64
2021/11/12 09:40:35;;;;;;;14.38;12.68;;;10.00;99.90;;;;;;5057430;28;20455;-64
2021/11/12 09:43:01;;;;;;;19.45;13.65;;;10.10;99.90;;;;;;5058740;28;20100;-64
2021/11/12 09:45:27;;;;;;;15.75;13.23;;;10.40;99.90;;;;;;5058183;28;20021;-64
2021/11/12 09:47:56;;;;;;;17.15;12.25;;;10.60;99.90;;;;;;5058609;28;20400;-64
2021/11/12 09:50:26;;;;;;;19.05;16.55;;;10.70;99.90;;;;;;5058102;28;20033;-64
2021/11/12 09:52:53;;;;;;;17.98;14.80;;;10.90;99.90;;;;;;5058337;28;20047;-64
2021/11/12 09:55:20;;;;;;;18.23;14.15;;;11.00;99.90;;;;;;5058230;28;20385;-64
2021/11/12 09:57:47;;;;;;;14.27;12.73;;;11.10;99.90;;;;;;5058339;28;20044;-64
2021/11/12 10:00:19;;;;;;;13.80;11.88;;;11.50;99.90;;;;;;5058139;28;20035;-64
2021/11/12 10:02:48;;;;;;;13.52;12.13;;;11.80;99.90;;;;;;5058321;28;20029;-64
2021/11/12 10:05:25;;;;;;;11.80;10.63;;;11.70;99.90;;;;;;5058251;28;20025;-64
2021/11/12 10:07:51;;;;;;;14.15;11.57;;;11.80;99.90;;;;;;5057929;28;20032;-64
2021/11/12 10:10:17;;;;;;;12.68;11.13;;;12.00;99.90;;;;;;5058262;28;20029;-64
2021/11/12 10:12:46;;;;;;;13.68;10.50;;;12.00;99.90;;;;;;5058077;28;20043;-64
2021/11/12 10:15:16;;;;;;;18.70;13.35;;;12.40;99.90;;;;;;5057666;28;20052;-64
2021/11/12 10:17:48;;;;;;;13.55;12.20;;;12.30;99.90;;;;;;5058045;28;20458;-64
2021/11/12 10:20:17;;;;;;;15.02;13.30;;;12.40;99.90;;;;;;5058112;28;20017;-64
2021/11/12 10:22:45;;;;;;;12.05;10.73;;;12.20;99.90;;;;;;5057681;28;20017;-64
2021/11/12 10:25:12;;;;;;;14.85;12.63;;;12.20;99.90;;;;;;5057816;28;20036;-64
2021/11/12 10:27:43;;;;;;;13.23;11.90;;;12.30;99.90;;;;;;5057832;28;20025;-64
2021/11/12 10:30:14;;;;;;;11.10;9.90;;;12.50;99.90;;;;;;5057611;28;20112;-64
2021/11/12 10:32:42;;;;;;;15.18;11.68;;;12.90;99.90;;;;;;5057546;28;20551;-64
2021/11/12 10:35:24;;;;;;;18.50;14.00;;;13.40;99.90;;;;;;5057582;28;20055;-65
2021/11/12 10:37:51;;;;;;;14.75;13.07;;;14.10;99.90;;;;;;5057472;28;20017;-64
2021/11/12 10:40:22;;;;;;;14.38;11.50;;;15.00;99.90;;;;;;5057607;28;20082;-64
2021/11/12 10:42:54;;;;;;;14.15;12.20;;;14.80;99.90;;;;;;5057681;28;20071;-64
2021/11/12 10:45:28;;;;;;;12.27;10.85;;;14.80;99.90;;;;;;5055785;28;20451;-64
2021/11/12 10:47:57;;;;;;;11.40;9.93;;;14.70;99.90;;;;;;5057585;28;20523;-64
2021/11/12 10:50:33;;;;;;;18.45;12.68;;;14.60;99.90;;;;;;5057171;28;20021;-64
2021/11/12 10:53:26;;;;;;;16.42;13.20;;;14.70;99.90;;;;;;5057261;28;20051;-64
2021/11/12 10:55:58;;;;;;;12.82;10.88;;;14.90;99.90;;;;;;5054953;28;20421;-64
2021/11/12 10:58:24;;;;;;;16.85;11.20;;;15.30;99.90;;;;;;5056999;28;20028;-65
2021/11/12 11:00:51;;;;;;;15.32;11.90;;;15.70;99.90;;;;;;5056997;28;20022;-65
2021/11/12 11:03:20;;;;;;;13.00;11.63;;;15.80;99.90;;;;;;5056397;28;20021;-65
2021/11/12 11:05:55;;;;;;;16.17;11.07;;;15.80;99.90;;;;;;5057090;28;20588;-64
2021/11/12 11:08:32;;;;;;;16.30;11.93;;;15.70;99.90;;;;;;5056847;28;20029;-65
2021/11/12 11:11:06;;;;;;;13.30;9.80;;;15.60;99.90;;;;;;5056910;28;20036;-65
2021/11/12 11:13:35;;;;;;;11.23;9.18;;;15.90;99.90;;;;;;5057046;28;20072;-65
2021/11/12 11:16:02;;;;;;;9.32;8.25;;;16.40;99.90;;;;;;5056403;28;20458;-65
2021/11/12 11:18:40;;;;;;;9.35;7.80;;;16.90;99.90;;;;;;5057000;28;20017;-65
2021/11/12 11:21:25;;;;;;;13.45;7.45;;;17.50;99.90;;;;;;5056819;28;20028;-65
2021/11/12 11:24:07;;;;;;;8.73;7.72;;;17.80;99.90;;;;;;5056816;28;20021;-65
2021/11/12 11:26:48;;;;;;;9.60;7.55;;;17.80;99.90;;;;;;5056744;28;20074;-65
2021/11/12 11:29:21;;;;;;;18.75;9.48;;;18.00;99.90;;;;;;5056342;28;20043;-65
2021/11/12 11:31:48;;;;;;;15.65;9.98;;;17.50;99.90;;;;;;5056773;28;20052;-65
2021/11/12 11:34:14;;;;;;;18.35;11.38;;;17.10;99.90;;;;;;5056572;28;20508;-65
2021/11/12 11:36:44;;;;;;;13.93;9.88;;;16.70;99.90;;;;;;5054887;28;20412;-65
2021/11/12 11:39:21;;;;;;;13.60;10.02;;;16.30;99.90;;;;;;5056535;28;20096;-65
2021/11/12 11:41:48;;;;;;;15.48;10.90;;;16.10;99.90;;;;;;5056572;28;20025;-65
2021/11/12 11:44:16;;;;;;;13.93;11.27;;;16.10;99.90;;;;;;5056214;28;20072;-65
2021/11/12 11:46:45;;;;;;;10.73;9.18;;;15.90;99.90;;;;;;5056378;28;20025;-65
2021/11/12 11:49:14;;;;;;;13.38;9.75;;;15.80;99.90;;;;;;5056646;28;20081;-65
2021/11/12 11:51:52;;;;;;;15.75;9.95;;;15.70;99.90;;;;;;5056207;28;20029;-65
2021/11/12 11:54:19;;;;;;;14.50;10.63;;;15.70;99.90;;;;;;5056545;28;20526;-65
2021/11/12 11:56:48;;;;;;;18.27;11.90;;;15.70;99.90;;;;;;5056428;28;20033;-65
2021/11/12 11:59:18;;;;;;;10.38;9.20;;;15.70;99.90;;;;;;5056381;28;20021;-65
2021/11/12 12:01:51;;;;;;;14.00;9.68;;;15.70;99.90;;;;;;5056241;28;20025;-65
2021/11/12 12:04:16;;;;;;;13.20;10.38;;;15.80;99.90;;;;;;5056388;28;20025;-65
2021/11/12 12:07:00;;;;;;;11.93;9.07;;;15.90;99.90;;;;;;5056016;28;20112;-65
2021/11/12 12:09:51;;;;;;;11.70;8.63;;;15.90;99.90;;;;;;5056287;28;20025;-65
2021/11/12 12:12:29;;;;;;;11.70;8.50;;;15.80;99.90;;;;;;5055057;28;20116;-65
2021/11/12 12:15:21;;;;;;;14.65;8.73;;;15.60;99.90;;;;;;5059085;28;20017;-65
2021/11/12 12:17:49;;;;;;;14.32;8.95;;;15.40;99.90;;;;;;5055137;28;20504;-65
2021/11/12 13:20:41;;;;;;;7.60;4.18;;;14.40;99.90;;;;;;5059211;28;20075;-64
2021/11/12 13:23:13;;;;;;;7.03;3.67;;;15.00;99.90;;;;;;5059119;28;20092;-64
2021/11/12 13:25:49;;;;;;;7.85;3.70;;;14.50;99.90;;;;;;5058355;28;20024;-64
2021/11/12 13:28:20;;;;;;;8.10;4.57;;;14.20;99.90;;;;;;5058925;28;20074;-64
2021/11/12 13:30:51;;;;;;;6.38;3.72;;;14.40;99.90;;;;;;5058434;28;20033;-64
2021/11/12 13:33:34;;;;;;;6.40;3.28;;;14.20;99.90;;;;;;5058860;28;20031;-64
2021/11/12 13:36:28;;;;;;;6.38;3.03;;;14.20;99.90;;;;;;5057146;28;20128;-65
2021/11/12 13:39:06;;;;;;;5.97;3.00;;;13.90;99.90;;;;;;5058667;28;20037;-65
2021/11/12 13:41:44;;;;;;;5.47;3.33;;;14.10;99.90;;;;;;5058727;28;20107;-64
2021/11/12 13:44:12;;;;;;;10.93;4.88;;;14.10;99.90;;;;;;5058538;28;20041;-64
2021/11/12 13:46:56;;;;;;;5.95;3.90;;;14.30;99.90;;;;;;5058542;28;20025;-65
2021/11/12 13:49:43;;;;;;;8.43;3.30;;;14.30;99.90;;;;;;5058662;28;20025;-64
2021/11/12 13:52:21;;;;;;;;;;;14.10;99.90;;;;;;5058826;28;20063;-64
2021/11/12 13:55:07;;;;;;;7.38;3.25;;;13.90;99.90;;;;;;5058293;28;19905;-64
2021/11/12 13:57:34;;;;;;;;;;;14.20;99.90;;;;;;5058785;28;20032;-64
2021/11/12 14:00:11;;;;;;;4.32;2.92;;;14.20;99.90;;;;;;5058047;28;20297;-64
2021/11/12 14:03:04;;;;;;;6.22;3.03;;;13.90;99.90;;;;;;5058489;28;20049;-64
2021/11/12 14:05:31;;;;;;;6.85;2.72;;;14.40;99.90;;;;;;5058061;28;20037;-65
2021/11/12 14:08:11;;;;;;;8.80;2.78;;;14.30;99.90;;;;;;5056661;28;20028;-64
2021/11/12 14:10:40;;;;;;;4.50;2.63;;;14.20;99.90;;;;;;5058489;28;20078;-64
2021/11/12 14:13:08;;;;;;;7.20;3.00;;;14.30;99.90;;;;;;5058155;28;20485;-64
2021/11/12 14:15:43;;;;;;;4.93;2.47;;;14.40;99.90;;;;;;5057772;28;20024;-64
2021/11/12 14:18:35;;;;;;;7.07;3.43;;;14.60;99.90;;;;;;5057834;28;20025;-64
2021/11/12 14:26:51;;;;;;;5.22;2.28;;;14.60;99.90;;;;;;5058421;28;20044;-64
2021/11/12 14:29:49;;;;;;;7.53;2.95;;;14.50;99.90;;;;;;5057448;28;20032;-64
2021/11/12 14:52:09;;;;;;;7.18;3.25;;;13.80;99.90;;;;;;5057090;28;20055;-64
2021/11/12 14:54:51;;;;;;;5.55;3.20;;;14.00;99.90;;;;;;5057347;28;20029;-64
2021/11/12 14:57:31;;;;;;;6.20;2.45;;;14.20;99.90;;;;;;5056975;28;20033;-64
2021/11/12 15:00:04;;;;;;;5.38;2.58;;;14.20;99.90;;;;;;5056870;28;20063;-64
2021/11/12 15:02:31;;;;;;;7.93;2.58;;;14.40;99.90;;;;;;5055894;28;20032;-64
2021/11/12 15:04:57;;;;;;;6.13;2.40;;;14.40;99.90;;;;;;5056897;28;20489;-64
2021/11/12 15:07:45;;;;;;;10.05;2.88;;;14.30;99.90;;;;;;5057133;28;20052;-64
2021/11/12 15:10:32;;;;;;;5.68;2.40;;;14.30;99.90;;;;;;5044559;28;20056;-64
2021/11/12 15:12:58;;;;;;;8.90;3.13;;;14.20;99.90;;;;;;5056626;28;20123;-64
2021/11/12 15:15:24;;;;;;;7.75;2.30;;;14.00;99.90;;;;;;5055334;28;20102;-64
2021/11/12 15:17:53;;;;;;;7.50;2.42;;;14.10;99.90;;;;;;5056731;28;20035;-64
2021/11/12 15:20:20;;;;;;;7.85;2.35;;;14.30;99.90;;;;;;5057040;28;20025;-64
2021/11/12 15:23:03;;;;;;;7.88;2.17;;;14.10;99.90;;;;;;5056602;28;20131;-64
2021/11/12 15:25:44;;;;;;;6.25;2.00;;;14.10;99.90;;;;;;5056711;28;20021;-64
2021/11/12 15:31:15;;;;;;;9.68;2.63;;;13.90;99.90;;;;;;5027184;28;20063;-64
2021/11/12 15:33:45;;;;;;;9.23;2.90;;;14.20;99.90;;;;;;5056801;28;20029;-64
2021/11/12 15:36:14;;;;;;;6.25;2.33;;;14.00;99.90;;;;;;5056582;28;20056;-64
2021/11/12 15:38:52;;;;;;;14.07;3.28;;;14.20;99.90;;;;;;5056428;28;20017;-65
2021/11/12 15:46:25;;;;;;;5.05;2.03;;;14.00;99.90;;;;;;5056515;28;20074;-64
2021/11/12 15:48:51;;;;;;;9.05;2.58;;;13.80;99.90;;;;;;5056192;28;20018;-64
2021/11/12 15:51:32;;;;;;;10.75;2.10;;;13.70;99.90;;;;;;5056530;28;20370;-65
2021/11/12 15:54:23;;;;;;;6.85;2.72;;;13.70;99.90;;;;;;5056614;28;20013;-64
2021/11/12 15:57:06;;;;;;;8.15;2.08;;;13.70;99.90;;;;;;5056311;28;20025;-64
2021/11/12 16:02:42;;;;;;;4.82;1.92;;;13.70;99.90;;;;;;5056398;28;20108;-64
2021/11/12 16:13:02;;;;;;;8.05;2.72;;;13.50;99.90;;;;;;5056162;28;20037;-65
2021/11/12 16:15:38;;;;;;;10.20;2.53;;;13.40;99.90;;;;;;5056017;28;20108;-64
2021/11/12 16:25:58;;;;;;;10.45;2.38;;;13.40;99.90;;;;;;5056308;28;20028;-64
2021/11/12 16:28:25;;;;;;;9.55;3.05;;;13.20;99.90;;;;;;5056222;28;20028;-64
2021/11/12 16:31:08;;;;;;;14.00;4.47;;;13.60;99.90;;;;;;5055923;28;20439;-64
2021/11/12 16:33:35;;;;;;;11.52;3.92;;;13.40;99.90;;;;;;5054996;28;20515;-64
2021/11/12 16:36:05;;;;;;;9.27;5.30;;;13.20;99.90;;;;;;5055896;28;20057;-64
2021/11/12 16:38:33;;;;;;;11.25;4.68;;;13.50;99.90;;;;;;5056077;28;20035;-65
2021/11/12 16:41:09;;;;;;;12.15;4.15;;;13.30;99.90;;;;;;5056089;28;20047;-64
2021/11/12 16:54:18;;;;;;;9.80;3.70;;;12.90;99.90;;;;;;5055951;28;20108;-64
2021/11/12 16:59:20;;;;;;;11.38;4.00;;;13.40;99.90;;;;;;5055679;28;20068;-64
2021/11/12 17:10:10;;;;;;;15.68;5.07;;;13.60;99.90;;;;;;5058999;28;20558;-64
2021/11/12 17:18:02;;;;;;;15.70;5.88;;;13.10;99.90;;;;;;5059199;28;20029;-64
2021/11/12 17:47:45;;;;;;;13.95;4.90;;;12.00;99.90;;;;;;5058654;28;20503;-65
2021/11/12 17:50:19;;;;;;;22.95;5.57;;;12.60;99.90;;;;;;5058393;28;20032;-64
2021/11/12 18:03:58;;;;;;;15.68;4.30;;;12.50;99.90;;;;;;5058307;28;20389;-64
2021/11/12 18:06:31;;;;;;;24.58;5.55;;;12.30;99.90;;;;;;5058069;28;20436;-64
2021/11/12 18:22:26;;;;;;;18.25;5.13;;;12.10;99.90;;;;;;5057993;28;20543;-64
2021/11/12 21:44:07;;;;;;;30.30;6.07;;;11.60;99.90;;;;;;5058439;28;20409;-64
2021/11/12 21:46:34;;;;;;;21.30;5.07;;;11.50;99.90;;;;;;5058414;28;20029;-65
2021/11/12 21:49:01;;;;;;;26.83;7.50;;;11.50;99.90;;;;;;5058599;28;20023;-65
2021/11/12 21:51:29;;;;;;;20.92;4.35;;;11.70;99.90;;;;;;5058672;28;20028;-65
2021/11/12 21:54:00;;;;;;;16.92;4.68;;;11.70;99.90;;;;;;5058633;28;20013;-65
2021/11/12 21:56:27;;;;;;;16.00;4.38;;;11.50;99.90;;;;;;5058268;28;20393;-65
2021/11/12 21:58:54;;;;;;;25.40;5.25;;;11.70;99.90;;;;;;5058317;28;20519;-65
2021/11/12 22:01:22;;;;;;;14.90;5.43;;;11.40;99.90;;;;;;5058312;28;20100;-65
2021/11/12 22:03:49;;;;;;;16.38;5.22;;;11.50;99.90;;;;;;5058428;28;20028;-65
2021/11/12 22:06:15;;;;;;;26.88;5.95;;;11.50;99.90;;;;;;5058129;28;20078;-65
2021/11/12 22:08:41;;;;;;;19.35;5.38;;;11.60;99.90;;;;;;5056844;28;20017;-65
2021/11/12 22:11:09;;;;;;;37.20;7.22;;;11.50;99.90;;;;;;5056755;28;20407;-65
2021/11/12 22:13:39;;;;;;;31.13;7.20;;;11.40;99.90;;;;;;5058291;28;20099;-65
2021/11/12 22:16:19;;;;;;;24.50;6.70;;;11.50;99.90;;;;;;5056652;28;20108;-65
2021/11/12 22:18:46;;;;;;;32.40;6.60;;;11.50;99.90;;;;;;5058116;28;20550;-65
2021/11/12 22:21:12;;;;;;;22.40;5.40;;;11.60;99.90;;;;;;5057871;28;20017;-65
2021/11/12 22:23:38;;;;;;;17.40;6.15;;;11.60;99.90;;;;;;5058031;28;20488;-65
2021/11/12 22:26:04;;;;;;;22.23;6.80;;;11.60;99.90;;;;;;5057943;28;20042;-65
2021/11/12 22:28:30;;;;;;;19.95;5.53;;;11.50;99.90;;;;;;5057695;28;20035;-65
2021/11/12 22:30:57;;;;;;;16.60;5.80;;;11.60;99.90;;;;;;5057916;28;20108;-65
2021/11/12 22:33:23;;;;;;;18.23;4.85;;;11.70;99.90;;;;;;5057893;28;20025;-65
2021/11/12 22:35:49;;;;;;;28.50;4.90;;;11.80;99.90;;;;;;5057434;28;20041;-65
2021/11/12 22:38:16;;;;;;;19.25;6.45;;;11.50;99.90;;;;;;5057502;28;20033;-65
2021/11/12 22:40:44;;;;;;;29.88;6.43;;;11.60;99.90;;;;;;5057506;28;20483;-64
2021/11/12 22:43:10;;;;;;;15.85;4.88;;;11.60;99.90;;;;;;5057636;28;20021;-65
2021/11/12 22:45:37;;;;;;;26.40;5.68;;;11.40;99.90;;;;;;5057328;28;20384;-64
2021/11/12 22:48:03;;;;;;;22.80;6.45;;;11.50;99.90;;;;;;5057741;28;20036;-65
2021/11/12 22:50:30;;;;;;;33.55;7.35;;;11.50;99.90;;;;;;5057337;28;20021;-65
2021/11/12 22:52:56;;;;;;;34.70;5.82;;;11.50;99.90;;;;;;5057300;28;20028;-64
2021/11/12 22:55:22;;;;;;;27.38;7.32;;;11.50;99.90;;;;;;5057211;28;20017;-64
2021/11/12 22:57:49;;;;;;;23.30;6.22;;;11.60;99.90;;;;;;5055308;28;20102;-65
2021/11/12 23:00:31;;;;;;;25.60;5.47;;;11.70;99.90;;;;;;5056861;28;20021;-64